Time;durP1;ratioP1;P1;durP2;ratioP2;P2;SDS_P1;SDS_P2;PMS_P1;PMS_P2;Temp;Humidity;BMP_temperature;BMP_pressure;BME280_temperature;BME280_humidity;BME280_pressure;Samples;Min_cycle;Max_cycle;Signal;HPM_P1;HPM_P2
2022/11/23 00:00:09;;;;;;;10.57;4.18;;;;;;;7.37;100.00;98943.53;5012894;28;20231;-75
2022/11/23 00:02:36;;;;;;;7.85;2.92;;;;;;;7.26;100.00;98934.31;5015060;28;20205;-75
2022/11/23 00:05:02;;;;;;;5.28;2.80;;;;;;;7.28;100.00;98937.75;5013925;28;20702;-75
2022/11/23 00:07:29;;;;;;;7.40;2.78;;;;;;;7.27;100.00;98940.50;5013190;28;21729;-74
2022/11/23 00:09:55;;;;;;;6.93;2.15;;;;;;;7.33;100.00;98942.88;5012023;28;20252;-75
2022/11/23 00:12:22;;;;;;;7.43;2.50;;;;;;;7.31;100.00;98942.06;5018909;28;20205;-76
2022/11/23 00:14:50;;;;;;;5.03;3.10;;;;;;;7.26;100.00;98944.16;5029446;28;20197;-76
2022/11/23 00:17:16;;;;;;;7.38;2.67;;;;;;;7.24;100.00;98933.53;5027946;28;20201;-75
2022/11/23 00:19:43;;;;;;;7.07;2.90;;;;;;;7.20;100.00;98934.63;5012181;28;20687;-77
2022/11/23 00:22:09;;;;;;;3.80;2.25;;;;;;;7.14;100.00;98936.78;5013352;28;20300;-77
2022/11/23 00:24:36;;;;;;;6.15;2.65;;;;;;;7.15;100.00;98947.41;5009111;28;20197;-78
2022/11/23 00:27:02;;;;;;;8.57;3.83;;;;;;;7.18;100.00;98944.56;5011508;28;20712;-77
2022/11/23 00:29:29;;;;;;;9.32;3.28;;;;;;;7.17;100.00;98942.84;5010069;28;20207;-75
2022/11/23 00:31:57;;;;;;;6.90;4.25;;;;;;;7.16;100.00;98938.41;5009226;28;20212;-75
2022/11/23 00:34:23;;;;;;;8.43;2.28;;;;;;;7.16;100.00;98938.41;5011962;28;20205;-76
2022/11/23 00:36:51;;;;;;;5.45;2.83;;;;;;;7.17;100.00;98936.59;5007012;28;20201;-75
2022/11/23 00:39:17;;;;;;;7.10;2.85;;;;;;;7.14;100.00;98934.97;5018582;28;20266;-77
2022/11/23 00:41:44;;;;;;;11.27;3.30;;;;;;;7.16;100.00;98927.72;5009817;28;20205;-76
2022/11/23 00:44:10;;;;;;;6.53;3.45;;;;;;;7.19;100.00;98937.38;5024974;28;20208;-74
2022/11/23 00:46:37;;;;;;;5.95;2.78;;;;;;;7.20;100.00;98933.78;5031422;28;20228;-74
2022/11/23 00:49:05;;;;;;;6.85;3.70;;;;;;;7.16;100.00;98937.56;5036536;28;20244;-75
2022/11/23 00:51:34;;;;;;;6.25;3.30;;;;;;;7.16;100.00;98934.88;5022524;28;20247;-75
2022/11/23 00:54:02;;;;;;;3.95;2.60;;;;;;;7.12;100.00;98942.19;5022898;28;20209;-75
2022/11/23 00:56:29;;;;;;;4.13;2.65;;;;;;;7.09;100.00;98950.41;5019539;28;20289;-74
2022/11/23 00:58:58;;;;;;;6.57;2.95;;;;;;;7.07;100.00;98952.31;5029521;28;20216;-77
2022/11/23 01:01:27;;;;;;;7.07;2.85;;;;;;;7.12;100.00;98952.91;5025113;28;20225;-77
2022/11/23 01:03:56;;;;;;;5.85;3.10;;;;;;;7.08;100.00;98948.69;5015369;28;20195;-75
2022/11/23 01:06:26;;;;;;;7.45;3.30;;;;;;;7.13;100.00;98957.34;5017389;28;20232;-76
2022/11/23 01:08:54;;;;;;;6.60;3.20;;;;;;;7.12;100.00;98955.59;5024716;28;20551;-76
2022/11/23 01:11:22;;;;;;;9.07;3.05;;;;;;;7.10;100.00;98954.84;5005224;28;20230;-74
2022/11/23 01:13:50;;;;;;;6.70;2.80;;;;;;;7.07;100.00;98954.97;5019521;28;20283;-76
2022/11/23 01:16:19;;;;;;;14.85;3.25;;;;;;;7.10;100.00;98955.69;5017309;28;20209;-77
2022/11/23 01:18:46;;;;;;;6.55;3.10;;;;;;;7.09;100.00;98955.78;5019155;28;20226;-75
2022/11/23 01:21:13;;;;;;;5.18;3.20;;;;;;;7.15;100.00;98963.47;5015056;28;20264;-75
2022/11/23 01:23:41;;;;;;;7.15;3.80;;;;;;;7.12;100.00;98966.31;5023346;28;20200;-75
2022/11/23 01:26:09;;;;;;;5.43;2.88;;;;;;;7.14;100.00;98967.09;5014589;28;20238;-76
2022/11/23 01:28:37;;;;;;;11.27;3.92;;;;;;;7.17;100.00;98971.41;5011869;28;20592;-75
2022/11/23 01:31:06;;;;;;;5.47;3.15;;;;;;;7.15;100.00;98968.84;5009217;28;20224;-75
2022/11/23 01:33:33;;;;;;;7.18;3.90;;;;;;;7.23;100.00;98969.25;5014532;28;20831;-76
2022/11/23 01:35:59;;;;;;;4.18;2.38;;;;;;;7.24;100.00;98968.31;5034292;28;20196;-76
2022/11/23 01:38:26;;;;;;;7.45;3.40;;;;;;;7.24;100.00;98973.69;5041325;28;20225;-75
2022/11/23 01:40:54;;;;;;;7.05;2.78;;;;;;;7.27;100.00;98976.19;5020208;28;20258;-76
2022/11/23 01:43:20;;;;;;;6.35;2.63;;;;;;;7.27;100.00;98964.63;5020573;28;20201;-76
2022/11/23 01:45:57;;;;;;;4.80;2.78;;;;;;;7.30;100.00;98972.47;5019243;28;20289;-77
2022/11/23 01:48:28;;;;;;;6.38;2.67;;;;;;;7.27;100.00;98964.63;5021754;28;20201;-75
2022/11/23 01:50:57;;;;;;;10.48;3.47;;;;;;;7.30;100.00;98978.72;5024635;28;20380;-76
2022/11/23 01:53:25;;;;;;;9.55;2.85;;;;;;;7.37;100.00;98978.34;5021136;28;20302;-75
2022/11/23 01:55:52;;;;;;;5.93;2.60;;;;;;;7.41;100.00;98977.25;5026207;28;20228;-76
2022/11/23 01:58:22;;;;;;;5.30;2.60;;;;;;;7.40;100.00;98963.00;5019519;28;20226;-75
2022/11/23 02:00:49;;;;;;;5.57;2.92;;;;;;;7.47;100.00;98976.91;5026834;28;20233;-75
2022/11/23 02:03:17;;;;;;;7.72;2.70;;;;;;;7.41;100.00;98977.25;5026032;28;20198;-75
2022/11/23 02:05:47;;;;;;;9.40;2.55;;;;;;;7.46;100.00;98972.50;5026156;28;20236;-75
2022/11/23 02:08:15;;;;;;;5.30;2.80;;;;;;;7.48;100.00;98970.59;5021922;28;20289;-75
2022/11/23 02:10:41;;;;;;;9.45;2.78;;;;;;;7.46;100.00;98972.50;5025424;28;20224;-76
2022/11/23 02:13:11;;;;;;;7.55;2.40;;;;;;;7.49;100.00;98966.97;5030598;28;20205;-76
2022/11/23 02:15:39;;;;;;;3.75;2.20;;;;;;;7.47;100.00;98967.06;5020202;28;20277;-75
2022/11/23 02:18:13;;;;;;;10.23;2.70;;;;;;;7.55;100.00;98971.13;5029219;28;20202;-74
2022/11/23 02:20:39;;;;;;;3.95;2.10;;;;;;;7.56;100.00;98968.38;5019157;28;20305;-76
2022/11/23 02:23:18;;;;;;;6.80;2.83;;;;;;;7.52;100.00;98966.81;5030241;28;20205;-76
2022/11/23 02:25:58;;;;;;;4.65;2.40;;;;;;;7.48;100.00;98965.22;5015451;28;20206;-75
2022/11/23 02:28:28;;;;;;;8.90;2.72;;;;;;;7.53;100.00;98963.19;5017467;28;20202;-75
2022/11/23 02:30:56;;;;;;;6.63;2.70;;;;;;;7.51;100.00;98955.22;5021980;28;20228;-75
2022/11/23 02:33:24;;;;;;;7.50;3.22;;;;;;;7.50;100.00;98961.53;5023681;28;20301;-75
2022/11/23 02:35:52;;;;;;;7.45;3.40;;;;;;;7.56;100.00;98960.31;5022368;28;20232;-75
2022/11/23 02:38:20;;;;;;;5.85;2.50;;;;;;;7.58;100.00;98966.47;5016386;28;20217;-76
2022/11/23 02:40:46;;;;;;;9.73;2.92;;;;;;;7.60;100.00;98959.22;5014864;28;20221;-76
2022/11/23 02:43:15;;;;;;;5.95;2.80;;;;;;;7.58;100.00;98960.25;5023053;28;20676;-75
2022/11/23 02:45:46;;;;;;;7.55;3.00;;;;;;;7.59;100.00;98957.47;5028561;28;20205;-75
2022/11/23 02:48:14;;;;;;;4.70;2.25;;;;;;;7.58;100.00;98952.22;5029327;28;20329;-75
2022/11/23 02:50:40;;;;;;;5.25;2.72;;;;;;;7.53;100.00;98965.88;5015765;28;20707;-77
2022/11/23 02:53:07;;;;;;;10.57;2.60;;;;;;;7.51;100.00;98954.38;5022551;28;20207;-76
2022/11/23 02:55:33;;;;;;;8.43;3.22;;;;;;;7.49;100.00;98961.63;5024388;28;20201;-76
2022/11/23 02:58:00;;;;;;;5.38;2.90;;;;;;;7.48;100.00;98958.09;5012013;28;20206;-76
2022/11/23 03:00:28;;;;;;;4.78;2.35;;;;;;;7.49;100.00;98962.47;5018251;28;20236;-76
2022/11/23 03:02:55;;;;;;;9.57;6.20;;;;;;;7.48;100.00;98963.44;4999296;28;20206;-75
2022/11/23 03:05:22;;;;;;;5.03;2.53;;;;;;;7.51;100.00;98949.88;5002972;28;20209;-75
2022/11/23 03:07:48;;;;;;;8.43;2.95;;;;;;;7.49;100.00;98957.13;5011428;28;20213;-75
2022/11/23 03:10:15;;;;;;;4.95;2.85;;;;;;;7.46;100.00;98959.09;5020233;28;20223;-74
2022/11/23 03:12:41;;;;;;;5.97;2.70;;;;;;;7.36;100.00;98961.44;5013064;28;20193;-76
2022/11/23 03:15:09;;;;;;;10.60;3.15;;;;;;;7.36;100.00;98969.47;5011254;28;20288;-78
2022/11/23 03:17:37;;;;;;;5.93;2.80;;;;;;;7.26;100.00;98965.56;5016342;28;20201;-76
2022/11/23 03:20:05;;;;;;;5.88;2.83;;;;;;;7.25;100.00;98962.00;5025853;28;20311;-76
2022/11/23 03:22:31;;;;;;;3.33;2.15;;;;;;;7.28;100.00;98972.56;5022218;28;20202;-77
2022/11/23 03:24:58;;;;;;;7.85;3.00;;;;;;;7.26;100.00;98966.44;5019165;28;20216;-75
2022/11/23 03:27:24;;;;;;;6.88;3.50;;;;;;;7.22;100.00;98969.38;5009845;28;20208;-76
2022/11/23 03:29:51;;;;;;;4.60;2.60;;;;;;;7.25;100.00;98975.41;5011977;28;20225;-76
2022/11/23 03:32:17;;;;;;;7.95;2.95;;;;;;;7.20;100.00;98973.94;5009123;28;20220;-75
2022/11/23 03:34:45;;;;;;;8.50;3.10;;;;;;;7.16;100.00;98970.53;5018271;28;20203;-75
2022/11/23 03:37:12;;;;;;;10.43;3.08;;;;;;;7.22;100.00;98977.41;5014073;28;20205;-75
2022/11/23 03:39:38;;;;;;;6.05;3.20;;;;;;;7.23;100.00;98971.06;5008750;28;20228;-75
2022/11/23 03:42:05;;;;;;;8.23;3.05;;;;;;;7.16;100.00;98975.91;5010658;28;20215;-75
2022/11/23 03:44:32;;;;;;;6.90;2.72;;;;;;;7.09;100.00;98979.88;5014217;28;20591;-76
2022/11/23 03:46:59;;;;;;;9.13;3.03;;;;;;;7.21;100.00;98976.53;5025713;28;20656;-76
2022/11/23 03:49:25;;;;;;;6.53;2.40;;;;;;;7.18;100.00;98968.66;5031251;28;20206;-75
2022/11/23 03:51:53;;;;;;;8.18;3.40;;;;;;;7.16;100.00;98975.91;5032498;28;20252;-76
2022/11/23 03:54:20;;;;;;;7.15;3.20;;;;;;;7.18;100.00;98978.50;5023960;28;20227;-75
2022/11/23 03:56:46;;;;;;;6.82;2.83;;;;;;;7.20;100.00;98977.47;5011424;28;20204;-76
2022/11/23 03:59:13;;;;;;;7.75;2.80;;;;;;;7.16;100.00;98975.91;5011875;28;20726;-76
2022/11/23 04:01:39;;;;;;;5.15;2.75;;;;;;;7.09;100.00;98982.53;5012378;28;20231;-77
2022/11/23 04:04:06;;;;;;;6.00;3.50;;;;;;;7.12;100.00;98979.69;5010907;28;20647;-75
2022/11/23 04:06:33;;;;;;;4.53;2.65;;;;;;;7.23;100.00;98979.13;5015573;28;20215;-76
2022/11/23 04:09:01;;;;;;;5.13;2.78;;;;;;;7.18;100.00;98982.03;5010135;28;20225;-75
2022/11/23 04:11:27;;;;;;;7.32;2.80;;;;;;;7.13;100.00;98978.75;5010665;28;20321;-74
2022/11/23 04:13:54;;;;;;;6.57;3.33;;;;;;;7.17;100.00;98982.13;5019254;28;20233;-77
2022/11/23 04:16:20;;;;;;;7.82;3.50;;;;;;;7.19;100.00;98980.22;5013085;28;20242;-76
2022/11/23 04:18:47;;;;;;;8.57;3.33;;;;;;;7.17;100.00;98985.69;5009679;28;20211;-76
2022/11/23 04:21:13;;;;;;;7.47;3.00;;;;;;;7.21;100.00;98981.91;5010687;28;20218;-76
2022/11/23 04:23:40;;;;;;;7.97;2.63;;;;;;;7.18;100.00;98979.38;5023053;28;20283;-76
2022/11/23 04:26:08;;;;;;;5.65;2.78;;;;;;;7.16;100.00;98975.03;5013374;28;20772;-76
2022/11/23 04:28:34;;;;;;;5.60;2.85;;;;;;;7.14;100.00;98983.16;5014833;28;20207;-77
2022/11/23 04:31:01;;;;;;;9.65;2.95;;;;;;;7.19;100.00;98982.91;5015224;28;20251;-76
2022/11/23 04:33:27;;;;;;;5.80;2.72;;;;;;;7.12;100.00;98982.38;5015155;28;20655;-76
2022/11/23 04:35:54;;;;;;;8.40;3.38;;;;;;;7.15;100.00;98987.56;5012152;28;20197;-75
2022/11/23 04:38:20;;;;;;;9.38;2.95;;;;;;;7.19;100.00;98978.44;5014047;28;20210;-75
2022/11/23 04:40:48;;;;;;;7.05;3.25;;;;;;;7.22;100.00;98985.44;5014573;28;20649;-75
2022/11/23 04:43:16;;;;;;;6.20;2.75;;;;;;;7.25;100.00;98988.78;5024978;28;20197;-76
2022/11/23 04:45:42;;;;;;;6.40;2.47;;;;;;;7.21;100.00;98989.94;5016032;28;20233;-77
2022/11/23 04:48:09;;;;;;;4.63;2.95;;;;;;;7.19;100.00;98990.94;5013643;28;20228;-75
2022/11/23 04:50:36;;;;;;;4.10;2.50;;;;;;;7.22;100.00;98988.97;5022333;28;20217;-76
2022/11/23 04:53:04;;;;;;;7.32;3.00;;;;;;;7.14;100.00;98985.81;5015751;28;20725;-76
2022/11/23 04:55:30;;;;;;;6.50;2.60;;;;;;;7.21;100.00;98994.38;5018980;28;20213;-76
2022/11/23 04:57:57;;;;;;;5.85;2.70;;;;;;;7.24;100.00;98981.72;5021237;28;20201;-76
2022/11/23 05:00:25;;;;;;;3.70;2.67;;;;;;;7.23;100.00;98982.66;5030709;28;20238;-72
2022/11/23 05:02:52;;;;;;;6.22;2.90;;;;;;;7.24;100.00;98983.53;5015281;28;20205;-76
2022/11/23 05:05:18;;;;;;;5.85;2.75;;;;;;;7.21;100.00;98981.91;5018933;28;20244;-75
2022/11/23 05:07:45;;;;;;;8.65;3.00;;;;;;;7.16;100.00;98991.09;5026240;28;20197;-77
2022/11/23 05:10:11;;;;;;;5.60;3.03;;;;;;;7.19;100.00;98990.94;5034246;23;20240;-75
2022/11/23 05:12:38;;;;;;;6.63;3.22;;;;;;;7.11;100.00;98983.31;5059077;28;20198;-74
2022/11/23 05:15:06;;;;;;;7.45;2.83;;;;;;;7.17;100.00;98984.78;5063599;28;20200;-74
2022/11/23 05:17:34;;;;;;;8.05;2.60;;;;;;;7.21;100.00;98978.31;5055569;28;20259;-73
2022/11/23 05:20:00;;;;;;;7.07;3.00;;;;;;;7.18;100.00;98981.19;5058475;28;20220;-73
2022/11/23 05:22:27;;;;;;;6.28;3.05;;;;;;;7.20;100.00;98980.16;5038867;28;20197;-74
2022/11/23 05:24:53;;;;;;;7.47;2.95;;;;;;;7.23;100.00;98995.19;5038107;28;20659;-74
2022/11/23 05:27:20;;;;;;;12.60;2.97;;;;;;;7.17;100.00;98984.78;5049316;28;20321;-74
2022/11/23 05:29:46;;;;;;;8.82;2.80;;;;;;;7.18;100.00;98979.38;5050890;28;20304;-75
2022/11/23 05:32:13;;;;;;;6.75;3.88;;;;;;;7.14;100.00;98984.97;5060187;28;20254;-74
2022/11/23 05:34:43;;;;;;;6.05;2.63;;;;;;;7.13;100.00;98975.22;5049248;28;20201;-72
2022/11/23 05:37:10;;;;;;;5.05;2.95;;;;;;;7.12;100.00;98986.84;5052607;28;20303;-77
2022/11/23 05:39:36;;;;;;;3.95;2.50;;;;;;;7.13;100.00;98980.56;5033253;28;20218;-72
2022/11/23 05:42:03;;;;;;;11.07;2.90;;;;;;;7.09;100.00;98990.56;5036653;28;20579;-76
2022/11/23 05:44:30;;;;;;;8.27;2.70;;;;;;;7.15;100.00;98994.75;5038997;28;20215;-74
2022/11/23 05:46:57;;;;;;;5.75;2.58;;;;;;;7.08;100.00;98994.22;5043094;28;20289;-75
2022/11/23 05:49:23;;;;;;;5.90;2.78;;;;;;;7.08;100.00;98992.38;5038008;28;20197;-74
2022/11/23 05:51:51;;;;;;;7.95;2.70;;;;;;;7.08;100.00;98994.22;5051515;28;20217;-75
2022/11/23 05:54:17;;;;;;;4.97;2.40;;;;;;;7.07;100.00;98998.66;5036472;28;20197;-74
2022/11/23 05:56:44;;;;;;;5.68;2.40;;;;;;;7.03;100.00;98998.91;5048716;28;20196;-77
2022/11/23 05:59:11;;;;;;;6.07;2.60;;;;;;;7.04;100.00;99001.53;5057132;28;20222;-73
2022/11/23 06:01:37;;;;;;;6.20;2.70;;;;;;;7.02;100.00;99010.59;5030234;28;20229;-74
2022/11/23 06:04:05;;;;;;;4.88;3.13;;;;;;;7.06;100.00;99010.34;5035338;28;20209;-73
2022/11/23 06:06:32;;;;;;;6.60;3.05;;;;;;;7.07;100.00;99003.16;5048529;28;20208;-74
2022/11/23 06:09:00;;;;;;;11.32;3.40;;;;;;;7.06;100.00;99017.50;5043634;28;20198;-73
2022/11/23 06:11:26;;;;;;;5.90;2.70;;;;;;;7.08;100.00;99007.59;5039934;28;20239;-74
2022/11/23 06:13:53;;;;;;;4.82;2.40;;;;;;;7.11;100.00;99012.78;5030435;28;20201;-73
2022/11/23 06:16:19;;;;;;;5.95;2.60;;;;;;;7.06;100.00;99010.34;5034186;28;20879;-75
2022/11/23 06:18:46;;;;;;;7.05;2.50;;;;;;;7.06;100.00;99017.50;5032527;28;20209;-73
2022/11/23 06:21:12;;;;;;;4.75;2.28;;;;;;;7.05;100.00;99021.13;5030103;28;20656;-74
2022/11/23 06:23:39;;;;;;;9.70;3.85;;;;;;;7.08;100.00;99024.50;5028824;28;20204;-74
2022/11/23 06:26:07;;;;;;;4.43;3.17;;;;;;;7.09;100.00;99026.22;5033748;28;20545;-79
2022/11/23 06:28:35;;;;;;;6.63;2.75;;;;;;;7.08;100.00;99029.00;5032949;28;20659;-76
2022/11/23 06:31:04;;;;;;;5.50;2.90;;;;;;;7.06;100.00;99033.56;5034119;28;20256;-76
2022/11/23 06:33:30;;;;;;;7.90;3.08;;;;;;;7.01;100.00;99027.56;5034695;28;20202;-76
2022/11/23 06:35:59;;;;;;;6.15;2.45;;;;;;;7.02;100.00;99021.28;5043654;28;20280;-75
2022/11/23 06:38:26;;;;;;;8.65;3.38;;;;;;;7.01;100.00;99014.19;5038450;28;20299;-75
2022/11/23 06:40:52;;;;;;;5.28;2.55;;;;;;;6.95;100.00;99015.41;5033975;28;20233;-75
2022/11/23 06:43:20;;;;;;;4.22;2.83;;;;;;;6.95;100.00;99015.41;5033469;28;20200;-75
2022/11/23 06:45:47;;;;;;;6.15;3.10;;;;;;;6.99;100.00;99024.16;5035644;28;20201;-78
2022/11/23 06:48:13;;;;;;;10.05;3.45;;;;;;;7.01;100.00;99024.91;5037920;28;20209;-75
2022/11/23 06:50:40;;;;;;;7.55;2.88;;;;;;;6.93;100.00;99032.47;5036940;28;20236;-74
2022/11/23 06:53:07;;;;;;;6.53;2.35;;;;;;;6.93;100.00;99032.47;5037631;28;20622;-74
2022/11/23 06:55:33;;;;;;;6.93;3.28;;;;;;;6.86;100.00;99029.25;5034344;28;20194;-75
2022/11/23 06:58:00;;;;;;;7.50;3.38;;;;;;;6.95;100.00;99033.28;5034747;28;20255;-76
2022/11/23 07:00:28;;;;;;;7.78;3.00;;;;;;;6.92;100.00;99034.31;5036162;28;20236;-74
2022/11/23 07:02:55;;;;;;;9.65;3.67;;;;;;;6.86;100.00;99048.00;5035262;28;20206;-76
2022/11/23 07:05:23;;;;;;;5.95;2.90;;;;;;;6.86;100.00;99039.97;5035830;28;20579;-73
2022/11/23 07:07:49;;;;;;;5.60;3.47;;;;;;;6.97;100.00;99040.28;5036943;28;20208;-75
2022/11/23 07:10:17;;;;;;;7.30;3.47;;;;;;;6.96;100.00;99045.69;5036895;28;20260;-77
2022/11/23 07:12:43;;;;;;;5.95;3.03;;;;;;;6.91;100.00;99045.94;5043417;28;20193;-75
2022/11/23 07:15:11;;;;;;;6.38;2.88;;;;;;;6.84;100.00;99047.19;5046933;28;20205;-74
2022/11/23 07:17:43;;;;;;;6.97;3.47;;;;;;;6.82;100.00;99046.41;5035536;28;20211;-73
2022/11/23 07:20:12;;;;;;;5.05;3.15;;;;;;;6.74;100.00;99044.16;5033808;28;20225;-77
2022/11/23 07:22:39;;;;;;;9.00;2.95;;;;;;;6.78;100.00;99045.69;5033092;28;20209;-75
2022/11/23 07:25:06;;;;;;;7.70;3.47;;;;;;;6.72;100.00;99043.34;5032897;28;20217;-75
2022/11/23 07:27:32;;;;;;;7.55;3.20;;;;;;;6.73;100.00;99047.75;5031968;28;20683;-75
2022/11/23 07:29:59;;;;;;;9.25;3.38;;;;;;;6.78;100.00;99048.38;5034082;28;20232;-76
2022/11/23 07:32:25;;;;;;;8.13;3.95;;;;;;;6.71;100.00;99051.44;5048201;28;20288;-73
2022/11/23 07:34:54;;;;;;;10.60;3.50;;;;;;;6.83;100.00;99051.69;5033262;28;20204;-77
2022/11/23 07:37:20;;;;;;;8.85;3.28;;;;;;;6.76;100.00;99046.72;5033155;28;20570;-74
2022/11/23 07:39:47;;;;;;;9.55;3.22;;;;;;;6.88;100.00;99055.00;5031360;28;20228;-75
2022/11/23 07:42:14;;;;;;;7.03;3.20;;;;;;;6.96;100.00;99049.22;5032435;28;20717;-74
2022/11/23 07:44:40;;;;;;;10.80;3.90;;;;;;;6.96;100.00;99054.59;5033362;28;20198;-75
2022/11/23 07:47:07;;;;;;;11.48;6.68;;;;;;;7.00;100.00;99055.31;5032537;28;20228;-74
2022/11/23 07:49:34;;;;;;;5.97;3.33;;;;;;;7.00;100.00;99057.97;5031791;28;20598;-75
2022/11/23 07:52:01;;;;;;;6.95;3.38;;;;;;;7.02;100.00;99067.66;5032124;28;20224;-75
2022/11/23 07:54:28;;;;;;;7.03;2.97;;;;;;;7.01;100.00;99067.72;5033071;28;20568;-73
2022/11/23 07:56:54;;;;;;;10.25;3.28;;;;;;;7.16;100.00;99066.06;5032821;28;20201;-74
2022/11/23 07:59:21;;;;;;;11.18;4.47;;;;;;;7.13;100.00;99067.09;5032792;28;20213;-74
2022/11/23 08:01:47;;;;;;;9.07;3.25;;;;;;;7.15;100.00;99070.56;5032739;28;20228;-75
2022/11/23 08:04:14;;;;;;;7.72;2.97;;;;;;;7.14;100.00;99068.81;5033194;28;20220;-75
2022/11/23 08:06:40;;;;;;;5.28;3.40;;;;;;;7.20;100.00;99067.66;5033506;28;20228;-73
2022/11/23 08:09:08;;;;;;;4.40;3.08;;;;;;;7.33;100.00;99068.72;5033919;28;20542;-74
2022/11/23 08:11:35;;;;;;;7.25;3.22;;;;;;;7.36;100.00;99071.22;5032947;28;20646;-74
2022/11/23 08:14:01;;;;;;;8.85;5.35;;;;;;;7.37;100.00;99070.31;5032903;28;20285;-75
2022/11/23 08:16:29;;;;;;;6.93;3.20;;;;;;;7.34;100.00;99069.59;5032885;28;20293;-74
2022/11/23 08:18:56;;;;;;;9.05;3.10;;;;;;;7.44;100.00;99070.81;5032407;28;20553;-75
2022/11/23 08:21:22;;;;;;;6.05;2.97;;;;;;;7.39;100.00;99073.75;5032771;28;20618;-75
2022/11/23 08:23:49;;;;;;;4.78;2.58;;;;;;;7.42;100.00;99062.88;5033221;28;20207;-74
2022/11/23 08:26:17;;;;;;;7.30;4.05;;;;;;;7.38;100.00;99069.34;5032652;28;20206;-74
2022/11/23 08:28:43;;;;;;;6.28;3.05;;;;;;;7.46;100.00;99063.56;5032292;28;20231;-74
2022/11/23 08:31:11;;;;;;;6.05;3.22;;;;;;;7.51;100.00;99066.88;5030997;28;20624;-74
2022/11/23 08:33:37;;;;;;;7.30;2.65;;;;;;;7.61;100.00;99062.75;5036061;28;20291;-74
2022/11/23 08:36:05;;;;;;;9.15;2.97;;;;;;;7.97;100.00;99072.38;5031987;28;20672;-74
2022/11/23 08:38:32;;;;;;;5.78;2.40;;;;;;;8.48;100.00;99070.41;5032074;28;20202;-74
2022/11/23 08:40:59;;;;;;;4.18;2.40;;;;;;;9.15;100.00;99061.97;5032060;28;20396;-75
2022/11/23 08:43:27;;;;;;;4.35;2.25;;;;;;;9.19;100.00;99068.91;5032496;28;20209;-75
2022/11/23 08:45:54;;;;;;;6.38;2.75;;;;;;;9.29;100.00;99061.13;5032712;28;20202;-76
2022/11/23 08:48:21;;;;;;;4.93;2.95;;;;;;;9.84;100.00;99055.00;5032218;28;20265;-74
2022/11/23 08:50:47;;;;;;;6.80;3.00;;;;;;;10.31;100.00;99059.19;5032685;28;20232;-73
2022/11/23 08:53:14;;;;;;;4.05;2.40;;;;;;;10.51;100.00;99057.84;5034512;28;20202;-74
2022/11/23 08:55:40;;;;;;;6.07;2.78;;;;;;;10.85;100.00;99055.56;5033981;28;20209;-74
2022/11/23 08:58:07;;;;;;;7.07;3.10;;;;;;;10.92;100.00;99051.53;5035791;28;20202;-75
2022/11/23 09:00:35;;;;;;;5.22;2.40;;;;;;;11.32;100.00;99058.66;5035235;28;20226;-75
2022/11/23 09:03:02;;;;;;;7.75;3.20;;;;;;;11.25;100.00;99063.63;5033901;28;20201;-74
2022/11/23 09:05:29;;;;;;;6.60;3.08;;;;;;;11.33;100.00;99061.25;5033026;28;20208;-74
2022/11/23 09:07:59;;;;;;;6.68;2.35;;;;;;;11.88;100.00;99057.38;5032549;28;20214;-75
2022/11/23 09:10:26;;;;;;;6.20;2.92;;;;;;;11.78;100.00;99050.91;5036885;28;20304;-73
2022/11/23 09:12:52;;;;;;;6.43;2.63;;;;;;;11.72;100.00;99050.47;5035563;28;20612;-73
2022/11/23 09:15:19;;;;;;;7.10;2.80;;;;;;;12.46;100.00;99054.09;5035523;28;20694;-73
2022/11/23 09:17:47;;;;;;;6.00;2.67;;;;;;;12.80;100.00;99054.22;5034666;28;20210;-73
2022/11/23 09:20:13;;;;;;;9.57;3.00;;;;;;;12.61;100.00;99060.16;5049193;28;20248;-74
2022/11/23 09:22:40;;;;;;;5.60;2.20;;;;;;;12.12;100.00;99053.88;5037362;28;20292;-73
2022/11/23 09:25:09;;;;;;;6.25;3.40;;;;;;;12.51;100.00;99057.28;5035167;28;20695;-74
2022/11/23 09:27:35;;;;;;;4.55;2.38;;;;;;;13.53;100.00;99051.25;5034529;28;20202;-75
2022/11/23 09:30:02;;;;;;;3.95;2.35;;;;;;;14.45;100.00;99047.50;5036631;28;20236;-74
2022/11/23 09:32:29;;;;;;;5.68;2.53;;;;;;;14.37;100.00;99048.13;5033944;28;20236;-75
2022/11/23 09:34:57;;;;;;;6.00;3.08;;;;;;;14.32;100.00;99051.22;5035636;28;20206;-74
2022/11/23 09:37:23;;;;;;;3.65;2.38;;;;;;;14.55;98.68;99057.47;5036044;28;20202;-75
2022/11/23 09:39:50;;;;;;;5.90;2.80;;;;;;;13.63;100.00;99048.69;5039335;28;20202;-74
2022/11/23 09:42:39;;;;;;;7.32;3.10;;;;;;;14.30;99.94;99052.34;5038600;28;20226;-75
2022/11/23 09:45:18;;;;;;;14.18;7.38;;;;;;;14.32;97.36;99053.06;5037771;28;20289;-74
2022/11/23 09:48:23;;;;;;;5.30;3.00;;;;;;;14.19;98.28;99047.81;5034659;28;20197;-74
2022/11/23 09:50:56;;;;;;;5.45;2.53;;;;;;;13.79;100.00;99047.47;5034559;28;20225;-75
2022/11/23 09:53:29;;;;;;;5.93;2.75;;;;;;;14.65;95.85;99043.16;5034916;28;20201;-74
2022/11/23 09:55:57;;;;;;;4.25;2.10;;;;;;;14.54;92.74;99047.63;5044388;28;20229;-75
2022/11/23 09:58:30;;;;;;;5.47;2.85;;;;;;;14.30;95.63;99045.06;5043294;28;20198;-73
2022/11/23 10:01:04;;;;;;;6.88;2.45;;;;;;;14.52;89.96;99046.88;5048372;28;20229;-73
2022/11/23 10:03:35;;;;;;;7.47;2.20;;;;;;;14.46;93.13;99047.38;5051306;28;20190;-74
2022/11/23 10:06:11;;;;;;;3.97;2.20;;;;;;;15.18;86.43;99049.44;5045909;28;20225;-74
2022/11/23 10:08:46;;;;;;;14.02;2.88;;;;;;;17.04;74.00;99045.56;5037073;28;20186;-74
2022/11/23 10:11:39;;;;;;;7.47;2.40;;;;;;;15.37;79.58;99048.72;5044344;28;20719;-73
2022/11/23 10:14:22;;;;;;;5.53;2.20;;;;;;;15.66;77.43;99039.03;5056647;28;20265;-74
2022/11/23 10:16:58;;;;;;;5.78;2.83;;;;;;;16.20;75.12;99041.41;5034411;28;20674;-75
2022/11/23 10:19:37;;;;;;;3.70;2.20;;;;;;;15.47;76.70;99042.47;5034810;28;20185;-74
2022/11/23 10:22:11;;;;;;;6.80;3.00;;;;;;;15.03;82.34;99042.63;5034114;28;20229;-74
2022/11/23 10:24:42;;;;;;;6.28;2.92;;;;;;;15.70;79.14;99037.78;5034810;28;20276;-74
2022/11/23 10:27:14;;;;;;;4.20;2.17;;;;;;;15.34;78.08;99037.28;5038032;28;20183;-74
2022/11/23 10:29:42;;;;;;;5.70;1.88;;;;;;;14.92;81.06;99031.84;5034534;28;20228;-74
2022/11/23 10:32:21;;;;;;;4.75;2.00;;;;;;;14.70;85.39;99028.25;5034809;28;20209;-74
2022/11/23 10:34:56;;;;;;;5.15;2.13;;;;;;;15.59;77.78;99031.41;5034651;28;20674;-74
2022/11/23 10:37:24;;;;;;;6.00;2.47;;;;;;;14.92;80.01;99035.41;5035346;28;20209;-75
2022/11/23 10:39:51;;;;;;;5.18;2.20;;;;;;;15.11;82.29;99032.00;5033950;28;20198;-74
2022/11/23 10:42:24;;;;;;;6.38;2.80;;;;;;;15.32;76.51;99036.56;5034959;28;20228;-73
2022/11/23 10:44:52;;;;;;;6.75;2.33;;;;;;;15.73;76.35;99022.09;5053800;28;20356;-74
2022/11/23 10:47:40;;;;;;;5.93;2.80;;;;;;;16.88;64.00;99025.22;5057753;28;20186;-76
2022/11/23 10:50:26;;;;;;;8.05;1.85;;;;;;;16.48;65.13;99022.59;5058404;28;20337;-75
2022/11/23 10:52:57;;;;;;;7.72;3.00;;;;;;;15.68;69.66;99018.91;5057904;28;20194;-75
2022/11/23 10:55:29;;;;;;;7.32;2.40;;;;;;;15.02;78.19;99011.09;5058046;28;20199;-75
2022/11/23 10:57:57;;;;;;;4.97;2.00;;;;;;;16.09;69.38;99008.94;5054328;28;20221;-75
2022/11/23 11:00:26;;;;;;;7.40;2.13;;;;;;;16.24;66.55;99017.56;5054935;28;20201;-75
2022/11/23 11:02:54;;;;;;;5.53;2.25;;;;;;;15.83;68.56;99005.88;5057778;28;20201;-78
2022/11/23 11:05:26;;;;;;;5.47;2.03;;;;;;;16.86;65.10;99008.19;5058359;28;20229;-77
2022/11/23 11:07:55;;;;;;;5.70;1.85;;;;;;;17.44;58.40;99003.69;5057723;28;20206;-78
2022/11/23 11:10:34;;;;;;;6.03;2.50;;;;;;;16.31;64.01;98999.69;5056737;28;20222;-75
2022/11/23 11:13:01;;;;;;;4.03;2.20;;;;;;;17.31;59.86;98995.84;5055255;28;20493;-76
2022/11/23 11:15:28;;;;;;;4.50;2.03;;;;;;;18.29;55.03;98999.03;5057847;28;20249;-75
2022/11/23 11:17:56;;;;;;;6.67;3.00;;;;;;;17.55;56.81;98998.06;5054439;28;20449;-76
2022/11/23 11:20:31;;;;;;;5.60;1.80;;;;;;;16.44;62.23;98991.28;5056208;28;20491;-76
2022/11/23 11:23:01;;;;;;;4.70;1.87;;;;;;;16.76;63.48;98982.88;5038718;28;20472;-74
2022/11/23 11:25:31;;;;;;;6.28;2.67;;;;;;;16.85;60.60;98994.78;5035273;28;20440;-76
2022/11/23 11:27:59;;;;;;;5.90;2.30;;;;;;;16.30;60.87;98987.09;5034806;28;20206;-74
2022/11/23 11:30:30;;;;;;;3.17;1.77;;;;;;;16.75;59.26;98978.41;5033744;28;20544;-76
2022/11/23 11:33:05;;;;;;;6.33;1.97;;;;;;;16.70;59.17;98975.28;5033997;28;20559;-75
2022/11/23 11:35:37;;;;;;;2.73;1.73;;;;;;;16.97;59.09;98968.28;5034128;28;20436;-74